Rosewood, Illinois
Current Conditions -  °F | °C
As of 6:45 AM on Monday 20 Oct 2014 (Local Time) from KALN Reporting Station
Scattered Clouds Scattered Clouds  
Wind Chill: 11°   Ceiling: Unl
Heat Index: 11°   Visibility: 10mi
Dew Point:   Wind: 7mph
Humidity: 88%   Direction: 220°SW
Pressure: 29.96"   Gusts: NA
Location:  38.8713°N, 90.0443°W
Report Text: KALN 201145Z 22006KT 10SM SCT100 11/09 A2996
Loading
Personal Weather Stations






























Interactive Weather Map
Tropical Storm Tracking
New forecast layout! Learn more

10-Day Weather Forecast

Advertisements
Track Severe Weather on mobile